sensor_id;sensor_type;location;lat;lon;timestamp;temperature;humidity
26505;DHT22;19493;48.042;7.584;2024-03-07T00:00:08;6.00;99.90
26505;DHT22;19493;48.042;7.584;2024-03-07T00:02:44;6.00;99.90
26505;DHT22;19493;48.042;7.584;2024-03-07T00:05:10;6.10;99.90
26505;DHT22;19493;48.042;7.584;2024-03-07T00:07:37;6.00;99.90
26505;DHT22;19493;48.042;7.584;2024-03-07T00:10:03;6.00;99.90
26505;DHT22;19493;48.042;7.584;2024-03-07T00:12:29;6.10;99.90
26505;DHT22;19493;48.042;7.584;2024-03-07T00:14:55;6.10;99.90
26505;DHT22;19493;48.042;7.584;2024-03-07T00:17:21;6.10;99.90
26505;DHT22;19493;48.042;7.584;2024-03-07T00:19:48;6.10;99.90
26505;DHT22;19493;48.042;7.584;2024-03-07T00:22:14;6.00;99.90
26505;DHT22;19493;48.042;7.584;2024-03-07T00:24:40;6.00;99.90
26505;DHT22;19493;48.042;7.584;2024-03-07T00:27:06;6.00;99.90
26505;DHT22;19493;48.042;7.584;2024-03-07T00:29:32;6.00;99.90
26505;DHT22;19493;48.042;7.584;2024-03-07T00:32:01;6.10;99.90
26505;DHT22;19493;48.042;7.584;2024-03-07T00:34:27;6.10;99.90
26505;DHT22;19493;48.042;7.584;2024-03-07T00:36:52;6.10;99.90
26505;DHT22;19493;48.042;7.584;2024-03-07T00:39:18;6.10;99.90
26505;DHT22;19493;48.042;7.584;2024-03-07T00:41:45;6.10;99.90
26505;DHT22;19493;48.042;7.584;2024-03-07T00:44:10;6.10;99.90
26505;DHT22;19493;48.042;7.584;2024-03-07T00:46:36;6.00;99.90
26505;DHT22;19493;48.042;7.584;2024-03-07T00:49:02;6.10;99.90
26505;DHT22;19493;48.042;7.584;2024-03-07T00:51:28;6.10;99.90
26505;DHT22;19493;48.042;7.584;2024-03-07T00:53:54;6.10;99.90
26505;DHT22;19493;48.042;7.584;2024-03-07T00:56:20;6.10;99.90
26505;DHT22;19493;48.042;7.584;2024-03-07T00:58:49;6.10;99.90
26505;DHT22;19493;48.042;7.584;2024-03-07T01:01:15;6.10;99.90
26505;DHT22;19493;48.042;7.584;2024-03-07T01:03:43;6.10;99.90
26505;DHT22;19493;48.042;7.584;2024-03-07T01:06:08;6.00;99.90
26505;DHT22;19493;48.042;7.584;2024-03-07T01:08:37;6.10;99.90
26505;DHT22;19493;48.042;7.584;2024-03-07T01:11:04;6.10;99.90
26505;DHT22;19493;48.042;7.584;2024-03-07T01:13:38;6.10;99.90
26505;DHT22;19493;48.042;7.584;2024-03-07T01:16:04;6.10;99.90
26505;DHT22;19493;48.042;7.584;2024-03-07T01:18:30;6.10;99.90
26505;DHT22;19493;48.042;7.584;2024-03-07T01:20:57;6.10;99.90
26505;DHT22;19493;48.042;7.584;2024-03-07T01:23:22;6.10;99.90
26505;DHT22;19493;48.042;7.584;2024-03-07T01:25:48;6.10;99.90
26505;DHT22;19493;48.042;7.584;2024-03-07T01:28:14;6.10;99.90
26505;DHT22;19493;48.042;7.584;2024-03-07T01:30:40;6.10;99.90
26505;DHT22;19493;48.042;7.584;2024-03-07T01:33:05;6.10;99.90
26505;DHT22;19493;48.042;7.584;2024-03-07T01:35:31;6.00;99.90
26505;DHT22;19493;48.042;7.584;2024-03-07T01:37:57;6.00;99.90
26505;DHT22;19493;48.042;7.584;2024-03-07T01:40:22;6.00;99.90
26505;DHT22;19493;48.042;7.584;2024-03-07T01:42:49;6.00;99.90
26505;DHT22;19493;48.042;7.584;2024-03-07T01:45:15;6.00;99.90
26505;DHT22;19493;48.042;7.584;2024-03-07T01:47:41;6.00;99.90
26505;DHT22;19493;48.042;7.584;2024-03-07T01:50:07;6.00;99.90
26505;DHT22;19493;48.042;7.584;2024-03-07T01:52:33;6.00;99.90
26505;DHT22;19493;48.042;7.584;2024-03-07T01:54:59;6.00;99.90
26505;DHT22;19493;48.042;7.584;2024-03-07T01:57:25;6.00;99.90
26505;DHT22;19493;48.042;7.584;2024-03-07T01:59:51;6.00;99.90
26505;DHT22;19493;48.042;7.584;2024-03-07T02:02:17;6.00;99.90
26505;DHT22;19493;48.042;7.584;2024-03-07T02:04:43;6.00;99.90
26505;DHT22;19493;48.042;7.584;2024-03-07T02:07:09;6.00;99.90
26505;DHT22;19493;48.042;7.584;2024-03-07T02:09:37;6.00;99.90
26505;DHT22;19493;48.042;7.584;2024-03-07T02:12:03;6.00;99.90
26505;DHT22;19493;48.042;7.584;2024-03-07T02:14:28;6.00;99.90
26505;DHT22;19493;48.042;7.584;2024-03-07T02:16:55;6.00;99.90
26505;DHT22;19493;48.042;7.584;2024-03-07T02:19:22;6.00;99.90
26505;DHT22;19493;48.042;7.584;2024-03-07T02:21:48;5.90;99.90
26505;DHT22;19493;48.042;7.584;2024-03-07T02:24:14;5.90;99.90
26505;DHT22;19493;48.042;7.584;2024-03-07T02:26:40;5.90;99.90
26505;DHT22;19493;48.042;7.584;2024-03-07T02:29:06;5.90;99.90
26505;DHT22;19493;48.042;7.584;2024-03-07T02:31:32;5.90;99.90
26505;DHT22;19493;48.042;7.584;2024-03-07T02:34:05;5.90;99.90
26505;DHT22;19493;48.042;7.584;2024-03-07T02:36:33;5.80;99.90
26505;DHT22;19493;48.042;7.584;2024-03-07T02:38:59;5.80;99.90
26505;DHT22;19493;48.042;7.584;2024-03-07T02:41:25;5.80;99.90
26505;DHT22;19493;48.042;7.584;2024-03-07T02:43:51;5.80;99.90
26505;DHT22;19493;48.042;7.584;2024-03-07T02:46:17;5.80;99.90
26505;DHT22;19493;48.042;7.584;2024-03-07T02:48:43;5.80;99.90
26505;DHT22;19493;48.042;7.584;2024-03-07T02:51:09;5.80;99.90
26505;DHT22;19493;48.042;7.584;2024-03-07T02:53:34;5.90;99.90
26505;DHT22;19493;48.042;7.584;2024-03-07T02:56:00;5.80;99.90
26505;DHT22;19493;48.042;7.584;2024-03-07T02:58:26;5.90;99.90
26505;DHT22;19493;48.042;7.584;2024-03-07T03:00:58;5.90;99.90
26505;DHT22;19493;48.042;7.584;2024-03-07T03:03:29;5.90;99.90
26505;DHT22;19493;48.042;7.584;2024-03-07T03:05:58;5.90;99.90
26505;DHT22;19493;48.042;7.584;2024-03-07T03:08:24;5.90;99.90
26505;DHT22;19493;48.042;7.584;2024-03-07T03:10:50;5.90;99.90
26505;DHT22;19493;48.042;7.584;2024-03-07T03:13:17;5.90;99.90
26505;DHT22;19493;48.042;7.584;2024-03-07T03:15:42;5.90;99.90
26505;DHT22;19493;48.042;7.584;2024-03-07T03:18:08;5.90;99.90
26505;DHT22;19493;48.042;7.584;2024-03-07T03:20:35;5.90;99.90
26505;DHT22;19493;48.042;7.584;2024-03-07T03:23:05;5.90;99.90
26505;DHT22;19493;48.042;7.584;2024-03-07T03:25:39;5.90;99.90
26505;DHT22;19493;48.042;7.584;2024-03-07T03:28:05;5.90;99.90
26505;DHT22;19493;48.042;7.584;2024-03-07T03:30:32;5.90;99.90
26505;DHT22;19493;48.042;7.584;2024-03-07T03:32:58;5.90;99.90
26505;DHT22;19493;48.042;7.584;2024-03-07T03:35:24;5.90;99.90
26505;DHT22;19493;48.042;7.584;2024-03-07T03:37:50;5.90;99.90
26505;DHT22;19493;48.042;7.584;2024-03-07T03:40:16;5.90;99.90
26505;DHT22;19493;48.042;7.584;2024-03-07T03:42:42;5.90;99.90
26505;DHT22;19493;48.042;7.584;2024-03-07T03:45:09;5.90;99.90
26505;DHT22;19493;48.042;7.584;2024-03-07T03:47:40;5.90;99.90
26505;DHT22;19493;48.042;7.584;2024-03-07T03:50:07;6.00;99.90
26505;DHT22;19493;48.042;7.584;2024-03-07T03:52:33;5.90;99.90
26505;DHT22;19493;48.042;7.584;2024-03-07T03:55:01;6.00;99.90
26505;DHT22;19493;48.042;7.584;2024-03-07T03:57:28;6.00;99.90
26505;DHT22;19493;48.042;7.584;2024-03-07T03:59:54;6.00;99.90
26505;DHT22;19493;48.042;7.584;2024-03-07T04:02:20;6.00;99.90
26505;DHT22;19493;48.042;7.584;2024-03-07T04:04:47;6.00;99.90
26505;DHT22;19493;48.042;7.584;2024-03-07T04:07:14;6.00;99.90
26505;DHT22;19493;48.042;7.584;2024-03-07T04:09:41;5.90;99.90
26505;DHT22;19493;48.042;7.584;2024-03-07T04:12:07;5.80;99.90
26505;DHT22;19493;48.042;7.584;2024-03-07T04:14:44;5.80;99.90
26505;DHT22;19493;48.042;7.584;2024-03-07T04:17:10;5.80;99.90
26505;DHT22;19493;48.042;7.584;2024-03-07T04:19:40;5.80;99.90
26505;DHT22;19493;48.042;7.584;2024-03-07T04:22:06;5.80;99.90
26505;DHT22;19493;48.042;7.584;2024-03-07T04:24:31;5.70;99.90
26505;DHT22;19493;48.042;7.584;2024-03-07T04:27:01;5.80;99.90
26505;DHT22;19493;48.042;7.584;2024-03-07T04:29:27;5.70;99.90
26505;DHT22;19493;48.042;7.584;2024-03-07T04:31:53;5.70;99.90
26505;DHT22;19493;48.042;7.584;2024-03-07T04:34:18;5.80;99.90
26505;DHT22;19493;48.042;7.584;2024-03-07T04:36:44;5.80;99.90
26505;DHT22;19493;48.042;7.584;2024-03-07T04:39:10;5.80;99.90
26505;DHT22;19493;48.042;7.584;2024-03-07T04:41:51;5.70;99.90
26505;DHT22;19493;48.042;7.584;2024-03-07T04:44:18;5.80;99.90
26505;DHT22;19493;48.042;7.584;2024-03-07T04:46:44;5.80;99.90
26505;DHT22;19493;48.042;7.584;2024-03-07T04:49:10;5.80;99.90
26505;DHT22;19493;48.042;7.584;2024-03-07T04:51:35;5.80;99.90
26505;DHT22;19493;48.042;7.584;2024-03-07T04:54:01;5.80;99.90
26505;DHT22;19493;48.042;7.584;2024-03-07T04:56:27;5.80;99.90
26505;DHT22;19493;48.042;7.584;2024-03-07T04:58:52;5.80;99.90
26505;DHT22;19493;48.042;7.584;2024-03-07T05:01:20;5.80;99.90
26505;DHT22;19493;48.042;7.584;2024-03-07T05:03:46;5.90;99.90
26505;DHT22;19493;48.042;7.584;2024-03-07T05:06:11;5.90;99.90
26505;DHT22;19493;48.042;7.584;2024-03-07T05:08:37;5.90;99.90
26505;DHT22;19493;48.042;7.584;2024-03-07T05:11:02;5.90;99.90
26505;DHT22;19493;48.042;7.584;2024-03-07T05:13:29;6.00;99.90
26505;DHT22;19493;48.042;7.584;2024-03-07T05:15:56;6.00;99.90
26505;DHT22;19493;48.042;7.584;2024-03-07T05:18:22;6.00;99.90
26505;DHT22;19493;48.042;7.584;2024-03-07T05:20:48;6.00;99.90
26505;DHT22;19493;48.042;7.584;2024-03-07T05:23:14;6.00;99.90
26505;DHT22;19493;48.042;7.584;2024-03-07T05:25:40;6.10;99.90
26505;DHT22;19493;48.042;7.584;2024-03-07T05:28:05;6.10;99.90
26505;DHT22;19493;48.042;7.584;2024-03-07T05:30:31;6.10;99.90
26505;DHT22;19493;48.042;7.584;2024-03-07T05:32:58;6.10;99.90
26505;DHT22;19493;48.042;7.584;2024-03-07T05:35:26;6.10;99.90
26505;DHT22;19493;48.042;7.584;2024-03-07T05:37:54;6.10;99.90
26505;DHT22;19493;48.042;7.584;2024-03-07T05:40:22;6.10;99.90
26505;DHT22;19493;48.042;7.584;2024-03-07T05:42:47;6.10;99.90
26505;DHT22;19493;48.042;7.584;2024-03-07T05:45:13;6.10;99.90
26505;DHT22;19493;48.042;7.584;2024-03-07T05:47:40;6.00;99.90
26505;DHT22;19493;48.042;7.584;2024-03-07T05:50:06;6.00;99.90
26505;DHT22;19493;48.042;7.584;2024-03-07T05:52:36;6.00;99.90
26505;DHT22;19493;48.042;7.584;2024-03-07T05:55:02;6.00;99.90
26505;DHT22;19493;48.042;7.584;2024-03-07T05:57:28;6.00;99.90
26505;DHT22;19493;48.042;7.584;2024-03-07T05:59:53;6.00;99.90
26505;DHT22;19493;48.042;7.584;2024-03-07T06:02:19;6.00;99.90
26505;DHT22;19493;48.042;7.584;2024-03-07T06:04:45;5.90;99.90
26505;DHT22;19493;48.042;7.584;2024-03-07T06:07:11;5.90;99.90
26505;DHT22;19493;48.042;7.584;2024-03-07T06:09:37;5.90;99.90
26505;DHT22;19493;48.042;7.584;2024-03-07T06:12:03;5.80;99.90
26505;DHT22;19493;48.042;7.584;2024-03-07T06:14:29;5.80;99.90
26505;DHT22;19493;48.042;7.584;2024-03-07T06:16:56;5.80;99.90
26505;DHT22;19493;48.042;7.584;2024-03-07T06:19:23;5.80;99.90
26505;DHT22;19493;48.042;7.584;2024-03-07T06:21:49;5.80;99.90
26505;DHT22;19493;48.042;7.584;2024-03-07T06:24:15;5.80;99.90
26505;DHT22;19493;48.042;7.584;2024-03-07T06:26:43;5.70;99.90
26505;DHT22;19493;48.042;7.584;2024-03-07T06:29:16;5.80;99.90
26505;DHT22;19493;48.042;7.584;2024-03-07T06:31:42;5.70;99.90
26505;DHT22;19493;48.042;7.584;2024-03-07T06:34:08;5.70;99.90
26505;DHT22;19493;48.042;7.584;2024-03-07T06:36:34;5.70;99.90
26505;DHT22;19493;48.042;7.584;2024-03-07T06:39:01;5.70;99.90
26505;DHT22;19493;48.042;7.584;2024-03-07T06:41:28;5.70;99.90
26505;DHT22;19493;48.042;7.584;2024-03-07T06:43:53;5.70;99.90
26505;DHT22;19493;48.042;7.584;2024-03-07T06:46:20;5.80;99.90
26505;DHT22;19493;48.042;7.584;2024-03-07T06:48:46;5.80;99.90
26505;DHT22;19493;48.042;7.584;2024-03-07T06:51:12;5.80;99.90
26505;DHT22;19493;48.042;7.584;2024-03-07T06:53:38;5.90;99.90
26505;DHT22;19493;48.042;7.584;2024-03-07T06:56:04;5.90;99.90
26505;DHT22;19493;48.042;7.584;2024-03-07T06:58:32;5.90;99.90
26505;DHT22;19493;48.042;7.584;2024-03-07T07:00:58;6.00;99.90
26505;DHT22;19493;48.042;7.584;2024-03-07T07:03:25;6.00;99.90
26505;DHT22;19493;48.042;7.584;2024-03-07T07:05:53;6.10;99.90
26505;DHT22;19493;48.042;7.584;2024-03-07T07:08:20;6.10;99.90
26505;DHT22;19493;48.042;7.584;2024-03-07T07:10:45;6.10;99.90
26505;DHT22;19493;48.042;7.584;2024-03-07T07:13:11;6.10;99.90
26505;DHT22;19493;48.042;7.584;2024-03-07T07:15:38;6.20;99.90
26505;DHT22;19493;48.042;7.584;2024-03-07T07:18:04;6.30;99.90
26505;DHT22;19493;48.042;7.584;2024-03-07T07:20:31;6.40;99.90
26505;DHT22;19493;48.042;7.584;2024-03-07T07:22:59;6.40;99.90
26505;DHT22;19493;48.042;7.584;2024-03-07T07:25:27;6.40;99.90
26505;DHT22;19493;48.042;7.584;2024-03-07T07:27:53;6.40;99.90
26505;DHT22;19493;48.042;7.584;2024-03-07T07:30:21;6.40;99.90
26505;DHT22;19493;48.042;7.584;2024-03-07T07:32:49;6.40;99.90
26505;DHT22;19493;48.042;7.584;2024-03-07T07:35:15;6.40;99.90
26505;DHT22;19493;48.042;7.584;2024-03-07T07:37:41;6.40;99.90
26505;DHT22;19493;48.042;7.584;2024-03-07T07:40:10;6.40;99.90
26505;DHT22;19493;48.042;7.584;2024-03-07T07:42:38;6.40;99.90
26505;DHT22;19493;48.042;7.584;2024-03-07T07:45:06;6.50;99.90
26505;DHT22;19493;48.042;7.584;2024-03-07T07:47:32;6.50;99.90
26505;DHT22;19493;48.042;7.584;2024-03-07T07:49:58;6.50;99.90
26505;DHT22;19493;48.042;7.584;2024-03-07T07:52:24;6.40;99.90
26505;DHT22;19493;48.042;7.584;2024-03-07T07:54:49;6.40;99.90
26505;DHT22;19493;48.042;7.584;2024-03-07T07:57:15;6.40;99.90
26505;DHT22;19493;48.042;7.584;2024-03-07T07:59:40;6.30;99.90
26505;DHT22;19493;48.042;7.584;2024-03-07T08:02:06;6.30;99.90
26505;DHT22;19493;48.042;7.584;2024-03-07T08:04:32;6.30;99.90
26505;DHT22;19493;48.042;7.584;2024-03-07T08:06:58;6.40;99.90
26505;DHT22;19493;48.042;7.584;2024-03-07T08:09:23;6.40;99.90
26505;DHT22;19493;48.042;7.584;2024-03-07T08:11:49;6.40;99.90
26505;DHT22;19493;48.042;7.584;2024-03-07T08:14:15;6.40;99.90
26505;DHT22;19493;48.042;7.584;2024-03-07T08:16:41;6.50;99.90
26505;DHT22;19493;48.042;7.584;2024-03-07T08:19:06;6.60;99.90
26505;DHT22;19493;48.042;7.584;2024-03-07T08:21:34;6.50;99.90
26505;DHT22;19493;48.042;7.584;2024-03-07T08:23:59;6.60;99.90
26505;DHT22;19493;48.042;7.584;2024-03-07T08:26:28;6.60;99.90
26505;DHT22;19493;48.042;7.584;2024-03-07T08:28:54;6.60;99.90
26505;DHT22;19493;48.042;7.584;2024-03-07T08:31:20;6.70;99.90
26505;DHT22;19493;48.042;7.584;2024-03-07T08:33:45;6.80;99.90
26505;DHT22;19493;48.042;7.584;2024-03-07T08:36:11;6.80;99.90
26505;DHT22;19493;48.042;7.584;2024-03-07T08:38:37;6.80;99.90
26505;DHT22;19493;48.042;7.584;2024-03-07T08:41:03;6.60;99.90
26505;DHT22;19493;48.042;7.584;2024-03-07T08:43:28;6.60;99.90
26505;DHT22;19493;48.042;7.584;2024-03-07T08:45:54;6.50;99.90
26505;DHT22;19493;48.042;7.584;2024-03-07T08:48:19;6.50;99.90
26505;DHT22;19493;48.042;7.584;2024-03-07T08:50:45;6.70;99.90
26505;DHT22;19493;48.042;7.584;2024-03-07T08:53:10;7.00;99.90
26505;DHT22;19493;48.042;7.584;2024-03-07T08:55:36;7.30;99.90
26505;DHT22;19493;48.042;7.584;2024-03-07T08:58:02;7.20;99.90
26505;DHT22;19493;48.042;7.584;2024-03-07T09:00:27;7.20;99.90
26505;DHT22;19493;48.042;7.584;2024-03-07T09:02:54;7.10;99.90
26505;DHT22;19493;48.042;7.584;2024-03-07T09:05:21;7.30;99.90
26505;DHT22;19493;48.042;7.584;2024-03-07T09:07:47;7.40;99.90
26505;DHT22;19493;48.042;7.584;2024-03-07T09:10:14;7.40;99.90
26505;DHT22;19493;48.042;7.584;2024-03-07T09:12:44;7.40;99.90
26505;DHT22;19493;48.042;7.584;2024-03-07T09:15:10;7.40;99.90
26505;DHT22;19493;48.042;7.584;2024-03-07T09:17:37;7.40;99.90
26505;DHT22;19493;48.042;7.584;2024-03-07T09:20:04;7.50;99.90
26505;DHT22;19493;48.042;7.584;2024-03-07T09:22:34;7.50;99.90
26505;DHT22;19493;48.042;7.584;2024-03-07T09:25:00;7.50;99.90
26505;DHT22;19493;48.042;7.584;2024-03-07T09:27:26;7.60;99.90
26505;DHT22;19493;48.042;7.584;2024-03-07T09:29:52;7.80;99.90
26505;DHT22;19493;48.042;7.584;2024-03-07T09:32:18;8.10;99.90
26505;DHT22;19493;48.042;7.584;2024-03-07T09:34:43;8.20;99.90
26505;DHT22;19493;48.042;7.584;2024-03-07T09:37:09;8.30;99.90
26505;DHT22;19493;48.042;7.584;2024-03-07T09:39:35;8.60;99.90
26505;DHT22;19493;48.042;7.584;2024-03-07T09:42:02;8.60;99.90
26505;DHT22;19493;48.042;7.584;2024-03-07T09:44:28;8.70;99.90
26505;DHT22;19493;48.042;7.584;2024-03-07T09:46:57;8.60;99.90
26505;DHT22;19493;48.042;7.584;2024-03-07T09:49:25;8.80;99.90
26505;DHT22;19493;48.042;7.584;2024-03-07T09:51:55;9.00;99.90
26505;DHT22;19493;48.042;7.584;2024-03-07T09:54:24;9.00;99.90
26505;DHT22;19493;48.042;7.584;2024-03-07T09:56:53;8.90;99.90
26505;DHT22;19493;48.042;7.584;2024-03-07T09:59:20;8.60;99.90
26505;DHT22;19493;48.042;7.584;2024-03-07T10:01:51;8.30;99.90
26505;DHT22;19493;48.042;7.584;2024-03-07T10:04:37;8.20;99.90
26505;DHT22;19493;48.042;7.584;2024-03-07T10:07:04;8.10;99.90
26505;DHT22;19493;48.042;7.584;2024-03-07T10:09:29;8.20;99.90
26505;DHT22;19493;48.042;7.584;2024-03-07T10:11:58;8.30;99.90
26505;DHT22;19493;48.042;7.584;2024-03-07T10:14:24;8.50;99.90
26505;DHT22;19493;48.042;7.584;2024-03-07T10:16:52;8.60;99.90
26505;DHT22;19493;48.042;7.584;2024-03-07T10:19:19;8.70;99.90
26505;DHT22;19493;48.042;7.584;2024-03-07T10:21:44;8.70;99.90
26505;DHT22;19493;48.042;7.584;2024-03-07T10:24:10;8.80;99.90
26505;DHT22;19493;48.042;7.584;2024-03-07T10:26:39;9.00;99.90
26505;DHT22;19493;48.042;7.584;2024-03-07T10:29:05;9.10;99.90
26505;DHT22;19493;48.042;7.584;2024-03-07T10:31:34;9.50;99.90
26505;DHT22;19493;48.042;7.584;2024-03-07T10:34:03;9.70;99.90
26505;DHT22;19493;48.042;7.584;2024-03-07T10:36:32;9.90;99.90
26505;DHT22;19493;48.042;7.584;2024-03-07T10:41:29;9.90;99.90
26505;DHT22;19493;48.042;7.584;2024-03-07T10:44:03;10.10;99.90
26505;DHT22;19493;48.042;7.584;2024-03-07T10:46:30;10.00;99.90
26505;DHT22;19493;48.042;7.584;2024-03-07T10:48:59;10.10;99.90
26505;DHT22;19493;48.042;7.584;2024-03-07T10:54:24;10.90;99.90
26505;DHT22;19493;48.042;7.584;2024-03-07T10:59:44;15.20;99.90
26505;DHT22;19493;48.042;7.584;2024-03-07T11:02:46;14.40;99.90
26505;DHT22;19493;48.042;7.584;2024-03-07T11:05:13;13.30;99.90
26505;DHT22;19493;48.042;7.584;2024-03-07T11:07:41;12.20;99.90
26505;DHT22;19493;48.042;7.584;2024-03-07T11:10:08;11.50;99.90
26505;DHT22;19493;48.042;7.584;2024-03-07T11:12:39;11.10;99.90
26505;DHT22;19493;48.042;7.584;2024-03-07T11:15:08;11.00;99.90
26505;DHT22;19493;48.042;7.584;2024-03-07T11:17:44;11.00;99.90
26505;DHT22;19493;48.042;7.584;2024-03-07T11:20:24;11.10;99.90
26505;DHT22;19493;48.042;7.584;2024-03-07T11:22:50;11.40;99.90
26505;DHT22;19493;48.042;7.584;2024-03-07T11:25:20;11.70;99.90
26505;DHT22;19493;48.042;7.584;2024-03-07T11:28:00;12.10;99.90
26505;DHT22;19493;48.042;7.584;2024-03-07T11:30:26;13.20;99.90
26505;DHT22;19493;48.042;7.584;2024-03-07T11:32:53;13.90;99.90
26505;DHT22;19493;48.042;7.584;2024-03-07T11:35:42;13.70;99.90
26505;DHT22;19493;48.042;7.584;2024-03-07T11:38:07;14.10;99.90
26505;DHT22;19493;48.042;7.584;2024-03-07T11:43:05;15.70;99.90
26505;DHT22;19493;48.042;7.584;2024-03-07T11:45:32;15.20;99.90
26505;DHT22;19493;48.042;7.584;2024-03-07T11:48:17;15.60;99.90
26505;DHT22;19493;48.042;7.584;2024-03-07T11:50:45;15.60;97.20
26505;DHT22;19493;48.042;7.584;2024-03-07T11:53:11;15.10;98.20
26505;DHT22;19493;48.042;7.584;2024-03-07T11:55:38;14.60;99.40
26505;DHT22;19493;48.042;7.584;2024-03-07T11:58:16;14.00;99.90
26505;DHT22;19493;48.042;7.584;2024-03-07T12:00:44;13.70;99.90
26505;DHT22;19493;48.042;7.584;2024-03-07T12:03:13;13.40;99.90
26505;DHT22;19493;48.042;7.584;2024-03-07T12:05:41;13.10;99.90
26505;DHT22;19493;48.042;7.584;2024-03-07T12:08:07;12.70;99.90
26505;DHT22;19493;48.042;7.584;2024-03-07T12:10:35;12.50;99.90
26505;DHT22;19493;48.042;7.584;2024-03-07T12:13:02;12.50;99.90
26505;DHT22;19493;48.042;7.584;2024-03-07T12:15:29;12.60;99.90
26505;DHT22;19493;48.042;7.584;2024-03-07T12:17:55;12.60;99.90
26505;DHT22;19493;48.042;7.584;2024-03-07T12:20:23;12.70;99.90
26505;DHT22;19493;48.042;7.584;2024-03-07T12:23:02;12.70;99.90
26505;DHT22;19493;48.042;7.584;2024-03-07T12:25:31;12.80;99.90
26505;DHT22;19493;48.042;7.584;2024-03-07T12:28:06;12.50;99.90
26505;DHT22;19493;48.042;7.584;2024-03-07T12:30:55;12.30;99.90
26505;DHT22;19493;48.042;7.584;2024-03-07T12:33:22;12.10;99.90
26505;DHT22;19493;48.042;7.584;2024-03-07T12:35:51;11.90;99.90
26505;DHT22;19493;48.042;7.584;2024-03-07T12:38:20;11.70;99.90
26505;DHT22;19493;48.042;7.584;2024-03-07T12:41:05;11.70;99.90
26505;DHT22;19493;48.042;7.584;2024-03-07T12:43:32;11.70;99.90
26505;DHT22;19493;48.042;7.584;2024-03-07T12:45:59;11.40;99.90
26505;DHT22;19493;48.042;7.584;2024-03-07T12:48:25;11.20;99.90
26505;DHT22;19493;48.042;7.584;2024-03-07T12:50:51;11.20;99.90
26505;DHT22;19493;48.042;7.584;2024-03-07T12:53:23;11.40;99.90
26505;DHT22;19493;48.042;7.584;2024-03-07T12:55:51;11.20;99.90
26505;DHT22;19493;48.042;7.584;2024-03-07T12:58:17;11.00;99.90
26505;DHT22;19493;48.042;7.584;2024-03-07T13:00:45;10.70;99.90
26505;DHT22;19493;48.042;7.584;2024-03-07T13:03:11;10.60;99.90
26505;DHT22;19493;48.042;7.584;2024-03-07T13:05:40;10.80;99.90
26505;DHT22;19493;48.042;7.584;2024-03-07T13:08:07;11.30;99.90
26505;DHT22;19493;48.042;7.584;2024-03-07T13:10:41;11.40;99.90
26505;DHT22;19493;48.042;7.584;2024-03-07T13:13:08;11.10;99.90
26505;DHT22;19493;48.042;7.584;2024-03-07T13:15:37;10.90;99.90
26505;DHT22;19493;48.042;7.584;2024-03-07T13:18:04;10.70;99.90
26505;DHT22;19493;48.042;7.584;2024-03-07T13:20:31;10.90;99.90
26505;DHT22;19493;48.042;7.584;2024-03-07T13:22:57;11.00;99.90
26505;DHT22;19493;48.042;7.584;2024-03-07T13:25:25;11.00;99.90
26505;DHT22;19493;48.042;7.584;2024-03-07T13:28:14;11.50;99.90
26505;DHT22;19493;48.042;7.584;2024-03-07T13:30:48;12.50;99.90
26505;DHT22;19493;48.042;7.584;2024-03-07T13:33:14;14.00;99.90
26505;DHT22;19493;48.042;7.584;2024-03-07T13:35:40;14.10;99.90
26505;DHT22;19493;48.042;7.584;2024-03-07T13:38:06;13.80;99.90
26505;DHT22;19493;48.042;7.584;2024-03-07T13:40:32;13.50;99.90
26505;DHT22;19493;48.042;7.584;2024-03-07T13:43:04;13.40;99.90
26505;DHT22;19493;48.042;7.584;2024-03-07T13:45:33;13.60;99.90
26505;DHT22;19493;48.042;7.584;2024-03-07T13:48:09;13.10;99.90
26505;DHT22;19493;48.042;7.584;2024-03-07T13:50:36;12.40;99.90
26505;DHT22;19493;48.042;7.584;2024-03-07T13:53:03;11.90;99.90
26505;DHT22;19493;48.042;7.584;2024-03-07T14:01:25;11.10;99.90
26505;DHT22;19493;48.042;7.584;2024-03-07T14:07:15;11.50;99.90
26505;DHT22;19493;48.042;7.584;2024-03-07T14:30:21;10.30;99.90
26505;DHT22;19493;48.042;7.584;2024-03-07T14:32:49;10.20;99.90
26505;DHT22;19493;48.042;7.584;2024-03-07T14:40:47;9.70;99.90
26505;DHT22;19493;48.042;7.584;2024-03-07T14:43:15;9.60;99.90
26505;DHT22;19493;48.042;7.584;2024-03-07T14:45:42;9.50;99.90
26505;DHT22;19493;48.042;7.584;2024-03-07T14:48:09;9.60;99.90
26505;DHT22;19493;48.042;7.584;2024-03-07T14:50:39;9.70;99.90
26505;DHT22;19493;48.042;7.584;2024-03-07T14:53:06;9.90;99.90
26505;DHT22;19493;48.042;7.584;2024-03-07T14:55:32;10.10;99.90
26505;DHT22;19493;48.042;7.584;2024-03-07T14:57:59;10.20;99.90
26505;DHT22;19493;48.042;7.584;2024-03-07T15:00:25;10.10;99.90
26505;DHT22;19493;48.042;7.584;2024-03-07T15:02:54;10.00;99.90
26505;DHT22;19493;48.042;7.584;2024-03-07T15:05:23;10.00;99.90
26505;DHT22;19493;48.042;7.584;2024-03-07T15:07:50;10.00;99.90
26505;DHT22;19493;48.042;7.584;2024-03-07T15:12:49;10.00;99.90
26505;DHT22;19493;48.042;7.584;2024-03-07T15:15:15;10.00;99.90
26505;DHT22;19493;48.042;7.584;2024-03-07T15:17:41;10.00;99.90
26505;DHT22;19493;48.042;7.584;2024-03-07T15:20:09;9.90;99.90
26505;DHT22;19493;48.042;7.584;2024-03-07T15:22:50;9.90;99.90
26505;DHT22;19493;48.042;7.584;2024-03-07T15:25:16;9.90;99.90
26505;DHT22;19493;48.042;7.584;2024-03-07T15:27:44;10.00;99.90
26505;DHT22;19493;48.042;7.584;2024-03-07T15:30:10;9.90;99.90
26505;DHT22;19493;48.042;7.584;2024-03-07T15:32:40;9.90;99.90
26505;DHT22;19493;48.042;7.584;2024-03-07T15:35:07;9.90;99.90
26505;DHT22;19493;48.042;7.584;2024-03-07T15:37:37;9.80;99.90
26505;DHT22;19493;48.042;7.584;2024-03-07T15:40:09;9.80;99.90
26505;DHT22;19493;48.042;7.584;2024-03-07T15:42:39;9.80;99.90
26505;DHT22;19493;48.042;7.584;2024-03-07T15:45:06;9.70;99.90
26505;DHT22;19493;48.042;7.584;2024-03-07T15:47:42;9.70;99.90
26505;DHT22;19493;48.042;7.584;2024-03-07T15:50:08;9.50;99.90
26505;DHT22;19493;48.042;7.584;2024-03-07T15:52:37;9.50;99.90
26505;DHT22;19493;48.042;7.584;2024-03-07T15:55:06;9.50;99.90
26505;DHT22;19493;48.042;7.584;2024-03-07T15:57:33;9.40;99.90
26505;DHT22;19493;48.042;7.584;2024-03-07T15:59:58;9.40;99.90
26505;DHT22;19493;48.042;7.584;2024-03-07T16:02:24;9.40;99.90
26505;DHT22;19493;48.042;7.584;2024-03-07T16:04:49;9.30;99.90
26505;DHT22;19493;48.042;7.584;2024-03-07T16:07:15;9.30;99.90
26505;DHT22;19493;48.042;7.584;2024-03-07T16:09:41;9.20;99.90
26505;DHT22;19493;48.042;7.584;2024-03-07T16:12:06;9.20;99.90
26505;DHT22;19493;48.042;7.584;2024-03-07T16:14:33;9.10;99.90
26505;DHT22;19493;48.042;7.584;2024-03-07T16:16:59;9.10;99.90
26505;DHT22;19493;48.042;7.584;2024-03-07T16:19:24;9.00;99.90
26505;DHT22;19493;48.042;7.584;2024-03-07T16:21:50;9.00;99.90
26505;DHT22;19493;48.042;7.584;2024-03-07T16:24:16;8.90;99.90
26505;DHT22;19493;48.042;7.584;2024-03-07T16:26:42;8.90;99.90
26505;DHT22;19493;48.042;7.584;2024-03-07T16:29:09;8.80;99.90
26505;DHT22;19493;48.042;7.584;2024-03-07T16:31:36;8.80;99.90